This is the latest recevied weather packets stored in our database for station/object WD0REW. If no packets are shown the sender has not sent any weather packets the latest 1 day(s).
| Time | Temp. | Humidity | Pressure | Rain* | Wind** | Luminosity | Snow |
|---|---|---|---|---|---|---|---|
| 1777998802 | 12.78° C | 76% | 1009.1 hPa | 0 mm | 0.89 m/s, 355° | 181 W/m² | - |
| 1777998500 | 12.78° C | 77% | 1008.9 hPa | 0 mm | 0.89 m/s, 350° | 194 W/m² | - |
| 1777998196 | 13.33° C | 76% | 1009.3 hPa | 0 mm | 2.24 m/s, 357° | 147 W/m² | - |
| 1777997893 | 13.33° C | 76% | 1009.2 hPa | 0 mm | 1.79 m/s, 328° | 107 W/m² | - |
| 1777997590 | 13.33° C | 76% | 1009.5 hPa | 0 mm | 0.45 m/s, 357° | 121 W/m² | - |
| 1777997288 | 13.33° C | 76% | 1009.5 hPa | 0 mm | 0.89 m/s, 348° | 117 W/m² | - |
| 1777996985 | 13.89° C | 74% | 1009.5 hPa | 0 mm | 3.58 m/s, 351° | 94 W/m² | - |
| 1777996682 | 13.89° C | 74% | 1009.8 hPa | 0 mm | 0.89 m/s, 8° | 54 W/m² | - |
| 1777996377 | 14.44° C | 74% | 1009.6 hPa | 0 mm | 1.34 m/s, 343° | 63 W/m² | - |
| 1777996074 | 14.44° C | 75% | 1009.5 hPa | 0 mm | 0.89 m/s, 345° | 57 W/m² | - |
| 1777995771 | 15° C | 74% | 1009.1 hPa | 0 mm | 0.45 m/s, 20° | 90 W/m² | - |
| 1777995467 | 15° C | 73% | 1008.8 hPa | 0 mm | 2.68 m/s, 357° | 178 W/m² | - |
| 1777995164 | 15.56° C | 72% | 1008.8 hPa | 0 mm | 0.45 m/s, 359° | 175 W/m² | - |
| 1777994861 | 15.56° C | 73% | 1008.1 hPa | 0 mm | 0.45 m/s, 349° | 216 W/m² | - |
| 1777994558 | 15.56° C | 72% | 1008.2 hPa | 0 mm | 0.45 m/s, 343° | 227 W/m² | - |
| 1777994257 | 15° C | 73% | 1008.1 hPa | 0 mm | 0.45 m/s, 38° | 282 W/m² | - |
| 1777993955 | 15° C | 75% | 1007.7 hPa | 0 mm | 0 m/s | 234 W/m² | - |
| 1777993652 | 14.44° C | 75% | 1008 hPa | 0 mm | 0.89 m/s, 326° | 265 W/m² | - |
| 1777993350 | 14.44° C | 76% | 1008.2 hPa | 0 mm | 0.45 m/s, 44° | 194 W/m² | - |
| 1777993050 | 14.44° C | 76% | 1008.1 hPa | 0 mm | 0.45 m/s, 28° | 154 W/m² | - |
| 1777992748 | 15° C | 74% | 1008.4 hPa | 0 mm | 0.89 m/s, 29° | 134 W/m² | - |
| 1777992445 | 14.44° C | 76% | 1008.3 hPa | 0 mm | 0.45 m/s, 9° | 177 W/m² | - |
| 1777992144 | 14.44° C | 75% | 1008.2 hPa | 0 mm | 1.79 m/s, 0° | 220 W/m² | - |
| 1777991840 | 14.44° C | 77% | 1008.4 hPa | 0 mm | 0 m/s | 212 W/m² | - |
| 1777991538 | 13.89° C | 78% | 1008.4 hPa | 0 mm | 0.89 m/s, 278° | 202 W/m² | - |
* Rain latest hour (hover to see other rain measurements)
** Current wind speed in m/s (hover to see current wind gust speed)